Pagrindinis puslapis
METAR-TAF:

METAR-TAF

Oro uostai :

Nevşehir, Turkija

platuma: 38-46-12N, ilguma: 034-32-30E, Aukštis: 945 m

Dabartinis oras

Ataskaita buvo paskelbta 34 minutes, ne 06:20 UTC
Vėjas 4 kt iš Rytų/Pietryčių
Temperatūra 23°C
Drėgmė 31%
Slėgis 1016 hPa
Matomumas 10 km arba daugiau
nėra debesų žemiau 1500 m ir nėra kamuolinių lietaus debesų

METAR: LTAZ 140620Z 12004KT CAVOK 23/05 Q1016 RMK RWY29 VRB02KT

Laikas: 09:54 (06:54 UTC)

Prognozė

Ataskaita buvo paskelbta 2 valandos ir 14 minutes, ne 04:40 UTC
Prognozė galioja nuo 14 metu 06 UTC su 15 metu 06 UTC
Vėjas 2 kt nuo kintamojo kryptimis
Matomumas 10 km arba daugiau
nėra debesų žemiau 1500 m ir nėra kamuolinių lietaus debesų
Tapsmas
nuo 14 metu 09 UTC su 14 metu 12 UTC
Vėjas 12 kt iš Vakarų
Mažai debesys ne aukštis 4000 ft
Tapsmas
nuo 14 metu 14 UTC su 14 metu 17 UTC
Vėjas 2 kt nuo kintamojo kryptimis
Matomumas 10 km arba daugiau
nėra debesų žemiau 1500 m ir nėra kamuolinių lietaus debesų

TAF: LTAZ 140440Z 1406/1506 VRB02KT CAVOK BECMG 1409/1412 27012KT FEW040 BECMG 1414/1417 VRB02KT CAVOK

Orai ataskaitas ir orų prognozės (METAR, TAF).

turimą stotys yra geltonos ir raudonos taškus žemėlapyje.

Perkelti pele per norėdami pamatyti stoties vardą.

Tada spustelėkite, norėdami matyti oro stebėjimo ir prognozės.

Norėdami pakeisti žemėlapį: spustelėkite ant žalios mygtukų su juodo kryžiaus žemyn,; žalią mygtuką su brūkšneliu, jei norite nutolinti; arba žalių rodyklių gretimoms žemėlapius.


METAR-TAF: